Time;durP1;ratioP1;P1;durP2;ratioP2;P2;SDS_P1;SDS_P2;PMS_P1;PMS_P2;Temp;Humidity;BMP_temperature;BMP_pressure;BME280_temperature;BME280_humidity;BME280_pressure;Samples;Min_cycle;Max_cycle;Signal;HPM_P1;HPM_P2
2024/02/04 00:00:05;;;;;;;8.55;7.05;;;7.20;84.60;;;;;;4981890;28;20027;-63
2024/02/04 00:02:31;;;;;;;8.65;6.93;;;7.20;84.70;;;;;;4964608;28;20070;-62
2024/02/04 00:04:56;;;;;;;8.70;6.57;;;7.20;84.70;;;;;;4969100;28;20031;-62
2024/02/04 00:07:22;;;;;;;8.70;6.97;;;7.20;84.80;;;;;;4974277;28;20039;-63
2024/02/04 00:09:47;;;;;;;8.45;6.57;;;7.20;84.70;;;;;;4964128;28;20038;-63
2024/02/04 00:12:13;;;;;;;8.60;7.03;;;7.20;84.60;;;;;;4968393;28;20118;-63
2024/02/04 00:14:38;;;;;;;7.88;6.80;;;7.20;84.40;;;;;;4971158;28;20042;-61
2024/02/04 00:17:04;;;;;;;9.00;7.30;;;7.20;84.20;;;;;;4976389;28;20034;-62
2024/02/04 00:19:30;;;;;;;9.25;7.05;;;7.30;84.20;;;;;;4974119;28;20027;-62
2024/02/04 00:21:55;;;;;;;9.15;7.03;;;7.30;84.10;;;;;;4989101;28;20637;-62
2024/02/04 00:24:21;;;;;;;7.53;6.55;;;7.30;83.80;;;;;;4990847;28;20026;-62
2024/02/04 00:26:46;;;;;;;8.45;6.80;;;7.30;83.80;;;;;;4998142;28;20042;-62
2024/02/04 00:29:12;;;;;;;8.23;6.45;;;7.30;83.70;;;;;;4985796;28;20439;-63
2024/02/04 00:31:38;;;;;;;8.80;6.68;;;7.30;83.60;;;;;;4999999;28;20031;-62
2024/02/04 00:34:04;;;;;;;7.18;6.10;;;7.20;83.40;;;;;;4990859;28;20044;-63
2024/02/04 00:36:30;;;;;;;8.02;6.35;;;7.30;83.30;;;;;;4983731;28;20333;-63
2024/02/04 00:38:56;;;;;;;7.53;6.57;;;7.20;83.10;;;;;;4989763;28;20125;-63
2024/02/04 00:41:21;;;;;;;8.77;6.75;;;7.20;83.10;;;;;;4998152;28;20034;-63
2024/02/04 00:43:47;;;;;;;8.00;6.25;;;7.20;83.20;;;;;;4991602;28;20097;-62
2024/02/04 00:46:12;;;;;;;6.90;6.10;;;7.10;83.30;;;;;;4985375;28;20085;-63
2024/02/04 00:48:40;;;;;;;8.02;6.35;;;7.10;83.40;;;;;;4987507;28;20101;-63
2024/02/04 00:51:06;;;;;;;8.38;5.97;;;7.10;83.50;;;;;;4982278;28;20517;-63
2024/02/04 00:53:33;;;;;;;8.45;5.90;;;7.10;83.50;;;;;;4972452;28;20138;-63
2024/02/04 00:56:02;;;;;;;8.13;6.13;;;7.10;83.60;;;;;;4970681;28;20125;-63
2024/02/04 00:58:27;;;;;;;8.20;6.90;;;7.10;83.60;;;;;;4969965;28;20039;-63
2024/02/04 01:00:53;;;;;;;8.45;6.70;;;7.10;83.70;;;;;;4965857;28;20042;-62
2024/02/04 01:03:18;;;;;;;9.38;6.90;;;7.10;83.80;;;;;;4964888;28;20114;-61
2024/02/04 01:05:44;;;;;;;8.32;6.75;;;7.00;83.90;;;;;;4969255;28;20035;-63
2024/02/04 01:08:10;;;;;;;8.63;6.80;;;7.00;84.00;;;;;;4968165;28;20110;-63
2024/02/04 01:10:35;;;;;;;8.10;6.68;;;7.00;84.10;;;;;;4968843;28;20407;-63
2024/02/04 01:13:01;;;;;;;8.18;6.43;;;7.00;84.30;;;;;;4974221;28;20033;-63
2024/02/04 01:15:26;;;;;;;8.45;6.88;;;7.00;84.50;;;;;;4969809;28;20522;-62
2024/02/04 01:17:52;;;;;;;9.77;6.97;;;6.90;84.60;;;;;;4978218;28;20035;-62
2024/02/04 01:20:18;;;;;;;7.78;6.72;;;6.90;84.70;;;;;;4971856;28;20085;-61
2024/02/04 01:22:44;;;;;;;8.60;6.78;;;6.90;84.70;;;;;;4970313;28;20035;-63
2024/02/04 01:25:09;;;;;;;8.98;6.57;;;6.90;84.80;;;;;;4975389;28;20026;-63
2024/02/04 01:27:35;;;;;;;8.52;6.38;;;6.90;84.80;;;;;;4972941;28;20027;-62
2024/02/04 01:30:01;;;;;;;7.57;5.93;;;6.90;85.00;;;;;;4977811;28;20022;-62
2024/02/04 01:32:26;;;;;;;7.43;5.78;;;6.90;85.00;;;;;;4971211;28;20093;-62
2024/02/04 01:34:52;;;;;;;6.93;5.70;;;6.90;85.20;;;;;;4977429;28;20034;-63
2024/02/04 01:37:18;;;;;;;6.78;5.30;;;6.90;85.20;;;;;;4971744;28;20035;-62
2024/02/04 01:39:43;;;;;;;6.78;5.38;;;6.90;85.30;;;;;;4968650;28;20057;-63
2024/02/04 01:42:09;;;;;;;6.20;4.82;;;6.90;85.30;;;;;;4977779;28;20039;-63
2024/02/04 01:44:36;;;;;;;5.97;5.00;;;6.90;85.30;;;;;;4970980;28;21738;-62
2024/02/04 01:47:01;;;;;;;6.45;5.47;;;7.00;85.30;;;;;;4976816;28;20030;-63
2024/02/04 01:49:27;;;;;;;6.32;5.18;;;6.90;85.30;;;;;;4963694;28;20415;-63
2024/02/04 01:51:53;;;;;;;8.40;5.78;;;7.00;86.20;;;;;;4969946;28;20395;-62
2024/02/04 01:54:22;;;;;;;7.07;5.55;;;7.00;85.30;;;;;;4964543;28;20035;-62
2024/02/04 01:56:50;;;;;;;7.22;5.50;;;6.90;85.30;;;;;;4967766;28;20406;-62
2024/02/04 01:59:16;;;;;;;6.97;5.50;;;7.00;86.20;;;;;;4973389;28;20110;-62
2024/02/04 02:01:43;;;;;;;6.03;5.07;;;7.00;85.00;;;;;;4973953;28;20117;-60
2024/02/04 02:04:09;;;;;;;7.32;5.47;;;7.00;84.90;;;;;;4959829;28;20035;-61
2024/02/04 02:06:41;;;;;;;7.00;6.05;;;7.00;84.60;;;;;;4965549;28;20050;-63
2024/02/04 02:09:10;;;;;;;6.78;5.78;;;6.90;84.50;;;;;;4973247;28;20030;-63
2024/02/04 02:11:47;;;;;;;6.85;6.00;;;6.90;84.40;;;;;;4968986;28;20032;-61
2024/02/04 02:14:24;;;;;;;9.32;5.80;;;6.90;84.70;;;;;;4969340;28;20048;-62
2024/02/04 02:16:50;;;;;;;7.18;6.13;;;6.80;84.70;;;;;;4968302;28;20117;-63
2024/02/04 02:19:45;;;;;;;8.30;6.60;;;6.80;84.40;;;;;;4965119;28;20129;-61
2024/02/04 02:22:32;;;;;;;8.30;6.60;;;6.70;84.60;;;;;;4964730;28;20422;-62
2024/02/04 02:24:59;;;;;;;7.45;6.25;;;6.70;84.50;;;;;;4984177;28;20029;-62
2024/02/04 02:27:25;;;;;;;8.27;6.55;;;6.60;84.20;;;;;;4989931;28;20034;-60
2024/02/04 02:29:51;;;;;;;7.78;6.38;;;6.50;84.40;;;;;;4987472;28;20073;-61
2024/02/04 02:32:17;;;;;;;8.23;5.93;;;6.50;84.70;;;;;;4986003;28;20038;-62
2024/02/04 02:34:43;;;;;;;9.50;6.90;;;6.40;84.90;;;;;;4987307;28;20478;-61
2024/02/04 02:37:22;;;;;;;8.20;6.68;;;6.40;85.10;;;;;;4989143;28;20030;-63
2024/02/04 02:40:01;;;;;;;7.43;6.20;;;6.40;85.40;;;;;;4988839;28;20434;-60
2024/02/04 02:42:28;;;;;;;7.60;6.35;;;6.40;85.80;;;;;;4995669;28;20034;-63
2024/02/04 02:44:54;;;;;;;8.20;6.72;;;6.30;85.40;;;;;;4988940;28;20482;-61
2024/02/04 02:47:22;;;;;;;7.95;6.50;;;6.30;85.60;;;;;;4985647;28;20043;-63
2024/02/04 02:49:50;;;;;;;9.90;7.15;;;6.30;85.60;;;;;;4986486;28;20502;-63
2024/02/04 02:52:16;;;;;;;9.60;7.53;;;6.30;85.60;;;;;;4984498;28;20094;-63
2024/02/04 02:54:41;;;;;;;8.90;7.30;;;6.30;85.60;;;;;;4982403;28;20030;-62
2024/02/04 02:57:07;;;;;;;8.27;6.80;;;6.30;85.60;;;;;;4982237;28;20572;-63
2024/02/04 02:59:32;;;;;;;8.93;6.88;;;6.30;85.80;;;;;;4983502;28;20096;-63
2024/02/04 03:01:58;;;;;;;8.48;6.82;;;6.30;85.90;;;;;;4992889;28;20046;-63
2024/02/04 03:04:23;;;;;;;11.05;7.50;;;6.30;85.80;;;;;;4979206;28;20039;-63
2024/02/04 03:06:49;;;;;;;8.55;6.75;;;6.30;86.00;;;;;;4983777;28;20034;-63
2024/02/04 03:09:14;;;;;;;9.45;7.60;;;6.30;86.00;;;;;;4980996;28;20126;-63
2024/02/04 03:11:40;;;;;;;9.88;7.15;;;6.30;85.90;;;;;;4985019;28;20038;-63
2024/02/04 03:14:06;;;;;;;8.05;6.90;;;6.30;85.90;;;;;;4992786;28;20030;-63
2024/02/04 03:16:31;;;;;;;8.52;6.93;;;6.30;86.00;;;;;;4984713;28;20129;-63
2024/02/04 03:18:57;;;;;;;9.13;7.05;;;6.30;86.10;;;;;;4980633;28;20494;-63
2024/02/04 03:21:22;;;;;;;7.97;6.47;;;6.30;86.10;;;;;;4976364;28;20066;-63
2024/02/04 03:23:48;;;;;;;7.68;6.47;;;6.30;86.30;;;;;;4969236;28;20045;-63
2024/02/04 03:26:20;;;;;;;8.55;6.90;;;6.30;86.20;;;;;;4973338;28;20554;-63
2024/02/04 03:28:45;;;;;;;9.23;6.93;;;6.30;86.30;;;;;;4961753;28;20238;-63
2024/02/04 03:31:11;;;;;;;8.10;6.63;;;6.30;86.10;;;;;;4961538;28;20566;-63
2024/02/04 03:33:36;;;;;;;7.78;6.63;;;6.30;86.20;;;;;;4969873;28;20047;-62
2024/02/04 03:36:02;;;;;;;7.93;6.22;;;6.30;86.10;;;;;;4967499;28;20045;-63
2024/02/04 03:38:28;;;;;;;8.93;6.50;;;6.30;86.00;;;;;;4974853;28;20174;-63
2024/02/04 03:40:54;;;;;;;8.73;6.50;;;6.30;86.10;;;;;;4975409;28;20030;-63
2024/02/04 03:43:20;;;;;;;8.70;6.50;;;6.30;86.00;;;;;;4970306;28;20035;-62
2024/02/04 03:45:45;;;;;;;8.38;6.38;;;6.30;86.10;;;;;;4972410;28;20118;-62
2024/02/04 03:48:11;;;;;;;8.63;6.47;;;6.30;86.10;;;;;;4970943;28;20082;-62
2024/02/04 03:50:36;;;;;;;7.68;6.07;;;6.30;86.20;;;;;;4977398;28;20047;-62
2024/02/04 03:53:02;;;;;;;7.70;6.13;;;6.30;86.30;;;;;;4970532;28;20117;-62
2024/02/04 03:55:28;;;;;;;7.50;5.88;;;6.30;86.50;;;;;;4967094;28;20046;-63
2024/02/04 03:57:57;;;;;;;8.00;6.00;;;6.30;86.70;;;;;;4968653;28;20031;-63
2024/02/04 04:00:22;;;;;;;7.07;6.38;;;6.30;86.70;;;;;;4969366;28;20033;-63
2024/02/04 04:02:48;;;;;;;7.75;6.13;;;6.30;86.60;;;;;;4969635;28;20038;-64
2024/02/04 04:05:13;;;;;;;8.27;6.53;;;6.30;86.50;;;;;;4959419;28;20503;-61
2024/02/04 04:07:40;;;;;;;8.73;6.35;;;6.30;86.50;;;;;;4963415;28;20042;-62
2024/02/04 04:10:06;;;;;;;7.50;6.20;;;6.30;86.40;;;;;;4968576;28;20027;-64
2024/02/04 04:12:31;;;;;;;8.40;6.78;;;6.30;86.40;;;;;;4966897;28;20039;-61
2024/02/04 04:14:57;;;;;;;9.05;6.35;;;6.30;86.50;;;;;;4970477;28;20054;-62
2024/02/04 04:17:23;;;;;;;7.32;6.22;;;6.30;86.50;;;;;;4970530;28;20077;-60
2024/02/04 04:19:48;;;;;;;9.25;6.35;;;6.30;86.50;;;;;;4960823;28;20078;-62
2024/02/04 04:22:14;;;;;;;8.38;6.22;;;6.30;86.50;;;;;;4961913;28;20042;-65
2024/02/04 04:24:39;;;;;;;8.23;5.95;;;6.30;86.50;;;;;;4966482;28;20400;-62
2024/02/04 04:27:05;;;;;;;10.40;5.95;;;6.30;86.60;;;;;;4970258;28;20034;-62
2024/02/04 04:29:30;;;;;;;7.45;5.95;;;6.30;86.60;;;;;;4969047;28;20046;-61
2024/02/04 04:31:56;;;;;;;7.03;5.85;;;6.30;86.70;;;;;;4967541;28;20041;-61
2024/02/04 04:34:22;;;;;;;8.15;5.88;;;6.30;86.70;;;;;;4965641;28;20031;-64
2024/02/04 04:36:47;;;;;;;6.97;5.60;;;6.30;86.70;;;;;;4965981;28;20117;-63
2024/02/04 04:39:13;;;;;;;7.57;5.65;;;6.20;86.70;;;;;;4977393;28;20517;-62
2024/02/04 04:41:40;;;;;;;6.68;5.53;;;6.30;86.80;;;;;;4978786;28;20057;-62
2024/02/04 04:44:06;;;;;;;9.02;5.78;;;6.30;86.90;;;;;;4967129;28;20114;-62
2024/02/04 04:46:32;;;;;;;8.13;5.93;;;6.30;87.00;;;;;;4972235;28;20422;-62
2024/02/04 04:48:58;;;;;;;7.63;5.65;;;6.30;87.10;;;;;;4968472;28;20039;-61
2024/02/04 04:51:24;;;;;;;8.70;5.50;;;6.20;87.00;;;;;;4969122;28;20053;-62
2024/02/04 04:53:49;;;;;;;7.50;5.93;;;6.30;87.20;;;;;;4973259;28;20127;-61
2024/02/04 04:56:15;;;;;;;10.00;5.93;;;6.30;87.40;;;;;;4969076;28;20117;-63
2024/02/04 04:58:40;;;;;;;11.35;5.93;;;6.30;87.50;;;;;;4967572;28;20046;-64
2024/02/04 05:01:06;;;;;;;11.02;6.22;;;6.30;87.50;;;;;;4969297;28;20062;-60
2024/02/04 05:03:32;;;;;;;9.90;5.97;;;6.30;87.70;;;;;;4961898;28;20089;-62
2024/02/04 05:05:58;;;;;;;7.88;6.07;;;6.30;87.70;;;;;;4970183;28;20039;-62
2024/02/04 05:08:23;;;;;;;7.32;5.95;;;6.30;87.70;;;;;;4965318;28;20447;-62
2024/02/04 05:10:49;;;;;;;7.95;6.28;;;6.40;87.60;;;;;;4969900;28;20042;-62
2024/02/04 05:13:14;;;;;;;8.60;6.30;;;6.40;87.70;;;;;;4967510;28;20053;-62
2024/02/04 05:15:40;;;;;;;8.57;6.72;;;6.30;87.70;;;;;;4966063;28;20125;-65
2024/02/04 05:18:06;;;;;;;8.70;6.43;;;6.30;87.70;;;;;;4963061;28;20034;-62
2024/02/04 05:20:31;;;;;;;7.55;5.82;;;6.40;87.90;;;;;;4964260;28;20122;-61
2024/02/04 05:22:57;;;;;;;9.80;7.05;;;6.40;87.70;;;;;;4965751;28;20051;-63
2024/02/04 05:25:23;;;;;;;11.77;7.45;;;6.40;87.70;;;;;;4971017;28;20130;-61
2024/02/04 05:27:49;;;;;;;12.63;7.35;;;6.40;87.90;;;;;;4962922;28;20061;-61
2024/02/04 05:30:15;;;;;;;11.80;6.90;;;6.40;87.80;;;;;;4966684;28;20055;-64
2024/02/04 05:32:41;;;;;;;8.00;6.30;;;6.40;87.80;;;;;;4965309;28;20043;-62
2024/02/04 05:35:07;;;;;;;10.98;6.80;;;6.30;87.80;;;;;;4964906;28;20035;-61
2024/02/04 05:37:33;;;;;;;8.85;6.78;;;6.30;88.00;;;;;;4973743;28;20410;-62
2024/02/04 05:39:59;;;;;;;10.73;6.60;;;6.30;88.00;;;;;;4956036;28;20027;-64
2024/02/04 05:42:24;;;;;;;9.20;6.45;;;6.30;88.00;;;;;;4957138;28;20039;-64
2024/02/04 05:44:50;;;;;;;8.82;7.05;;;6.30;88.00;;;;;;4970052;28;20054;-62
2024/02/04 05:47:16;;;;;;;10.23;6.80;;;6.30;88.00;;;;;;4970828;28;20038;-63
2024/02/04 05:49:41;;;;;;;9.38;6.47;;;6.30;88.20;;;;;;4974994;28;20153;-64
2024/02/04 05:52:07;;;;;;;9.40;6.57;;;6.30;88.40;;;;;;4963900;28;20394;-65
2024/02/04 05:54:38;;;;;;;9.82;7.05;;;6.30;88.40;;;;;;4960890;28;20023;-64
2024/02/04 05:57:04;;;;;;;8.95;5.85;;;6.30;88.70;;;;;;4965661;28;20041;-64
2024/02/04 05:59:30;;;;;;;9.02;6.35;;;6.30;88.40;;;;;;4970142;28;20050;-64
2024/02/04 06:01:55;;;;;;;7.28;5.35;;;6.40;88.50;;;;;;4966301;28;20455;-64
2024/02/04 06:04:21;;;;;;;8.70;6.57;;;6.40;88.60;;;;;;4965057;28;20411;-65
2024/02/04 06:06:46;;;;;;;6.72;5.57;;;6.40;88.60;;;;;;4972693;28;20031;-64
2024/02/04 06:09:12;;;;;;;7.30;5.65;;;6.40;88.60;;;;;;4963467;28;20046;-63
2024/02/04 06:11:37;;;;;;;7.80;5.90;;;6.40;88.60;;;;;;4964185;28;20255;-63
2024/02/04 06:14:03;;;;;;;7.20;5.70;;;6.40;88.80;;;;;;4965831;28;20089;-63
2024/02/04 06:16:29;;;;;;;5.90;5.25;;;6.40;88.80;;;;;;4962559;28;20049;-63
2024/02/04 06:18:56;;;;;;;7.25;5.28;;;6.40;88.90;;;;;;4972893;28;20449;-64
2024/02/04 06:21:22;;;;;;;7.88;5.50;;;6.50;89.00;;;;;;4962056;28;20035;-64
2024/02/04 06:23:48;;;;;;;7.05;4.93;;;6.50;89.10;;;;;;4968747;28;20456;-60
2024/02/04 06:26:13;;;;;;;7.55;5.25;;;6.50;89.00;;;;;;4963373;28;20030;-64
2024/02/04 06:28:39;;;;;;;6.13;5.18;;;6.50;88.90;;;;;;4960303;28;20128;-64
2024/02/04 06:31:08;;;;;;;6.38;4.88;;;6.60;88.90;;;;;;4967217;28;20054;-64
2024/02/04 06:33:33;;;;;;;7.18;4.88;;;6.60;89.70;;;;;;4975912;28;20045;-62
2024/02/04 06:35:59;;;;;;;7.00;5.38;;;6.60;88.70;;;;;;4961580;28;20031;-64
2024/02/04 06:38:24;;;;;;;5.80;4.57;;;6.60;88.70;;;;;;4967618;28;20507;-65
2024/02/04 06:40:50;;;;;;;5.50;4.50;;;6.60;88.60;;;;;;4966104;28;20065;-64
2024/02/04 06:43:16;;;;;;;5.60;4.13;;;6.70;88.60;;;;;;4971682;28;20081;-64
2024/02/04 06:45:41;;;;;;;4.90;4.22;;;6.70;88.60;;;;;;4969243;28;20411;-63
2024/02/04 06:48:07;;;;;;;6.05;4.38;;;6.70;88.50;;;;;;4966502;28;20035;-65
2024/02/04 06:50:33;;;;;;;7.85;4.53;;;6.70;88.50;;;;;;4972585;28;20089;-65
2024/02/04 06:52:58;;;;;;;5.82;4.57;;;6.70;88.30;;;;;;4982476;28;20060;-62
2024/02/04 06:55:24;;;;;;;4.93;4.05;;;6.70;88.50;;;;;;4984168;28;20459;-65
2024/02/04 06:57:49;;;;;;;5.32;4.10;;;6.70;88.30;;;;;;4983645;28;20061;-63
2024/02/04 07:00:15;;;;;;;4.55;3.92;;;6.70;88.30;;;;;;4985427;28;20038;-63
2024/02/04 07:02:41;;;;;;;4.10;3.67;;;6.60;88.30;;;;;;4984726;28;20411;-62
2024/02/04 07:05:08;;;;;;;5.18;3.80;;;6.70;88.50;;;;;;4994533;28;20497;-63
2024/02/04 07:07:33;;;;;;;4.03;3.50;;;6.70;88.50;;;;;;4991576;28;20054;-63
2024/02/04 07:09:59;;;;;;;4.28;3.70;;;6.70;88.60;;;;;;4996361;28;20030;-63
2024/02/04 07:12:25;;;;;;;3.83;3.42;;;6.60;88.60;;;;;;4989246;28;20418;-64
2024/02/04 07:14:50;;;;;;;6.10;3.70;;;6.70;88.70;;;;;;4995766;28;20409;-64
2024/02/04 07:17:16;;;;;;;6.13;3.83;;;6.70;88.60;;;;;;4989737;28;20037;-64
2024/02/04 07:19:41;;;;;;;5.28;3.92;;;6.70;88.50;;;;;;4986047;28;20031;-62
2024/02/04 07:22:07;;;;;;;4.28;3.53;;;6.60;88.40;;;;;;4995937;28;20483;-63
2024/02/04 07:24:32;;;;;;;5.47;3.58;;;6.70;88.60;;;;;;4989003;28;20034;-64
2024/02/04 07:26:58;;;;;;;3.33;2.92;;;6.60;88.60;;;;;;4976856;28;20115;-64
2024/02/04 07:29:24;;;;;;;7.00;2.90;;;6.70;88.80;;;;;;4970176;28;20039;-64
2024/02/04 07:31:49;;;;;;;4.15;2.95;;;6.70;88.80;;;;;;4960010;28;20031;-64
2024/02/04 07:34:15;;;;;;;4.80;2.78;;;6.70;88.70;;;;;;4955852;28;20046;-64
2024/02/04 07:36:40;;;;;;;3.83;3.00;;;6.60;88.70;;;;;;4951832;28;20575;-63
2024/02/04 07:39:06;;;;;;;5.82;2.80;;;6.60;88.60;;;;;;4963351;28;20045;-63
2024/02/04 07:41:32;;;;;;;3.78;2.70;;;6.70;88.80;;;;;;4965306;28;20432;-63
2024/02/04 07:43:57;;;;;;;3.97;2.60;;;6.70;89.00;;;;;;4957900;28;20426;-63
2024/02/04 07:46:23;;;;;;;3.25;2.83;;;6.70;89.00;;;;;;4957048;28;20050;-61
2024/02/04 07:48:49;;;;;;;3.22;2.90;;;6.70;89.00;;;;;;4961024;28;20059;-63
2024/02/04 07:51:14;;;;;;;4.40;2.78;;;6.70;88.80;;;;;;4963265;28;20108;-64
2024/02/04 07:53:40;;;;;;;4.15;2.47;;;6.70;88.90;;;;;;4968623;28;20502;-62
2024/02/04 07:56:10;;;;;;;3.83;2.65;;;6.70;88.80;;;;;;4959046;28;20035;-64
2024/02/04 07:58:36;;;;;;;2.95;2.67;;;6.70;88.90;;;;;;4965381;28;20537;-62
2024/02/04 08:01:01;;;;;;;2.50;2.30;;;6.70;88.80;;;;;;4961056;28;20071;-63
2024/02/04 08:03:27;;;;;;;5.45;2.83;;;6.60;88.90;;;;;;4964105;28;20109;-64
2024/02/04 08:05:52;;;;;;;3.45;3.13;;;6.60;89.10;;;;;;4960583;28;20031;-63
2024/02/04 08:08:19;;;;;;;2.95;2.67;;;6.70;89.20;;;;;;4960319;28;20047;-64
2024/02/04 08:10:44;;;;;;;2.85;2.65;;;6.60;89.10;;;;;;4962828;28;20114;-63
2024/02/04 08:13:10;;;;;;;5.43;3.50;;;6.60;89.20;;;;;;4961094;28;20615;-63
2024/02/04 08:15:35;;;;;;;4.18;3.22;;;6.60;89.50;;;;;;4963650;28;20034;-65
2024/02/04 08:18:01;;;;;;;3.72;3.33;;;6.70;89.90;;;;;;4964584;28;20034;-65
2024/02/04 08:20:27;;;;;;;4.13;3.33;;;6.70;90.00;;;;;;4968409;28;20384;-64
2024/02/04 08:22:52;;;;;;;4.32;3.08;;;6.70;90.00;;;;;;4961345;28;20054;-64
2024/02/04 08:25:18;;;;;;;4.15;3.13;;;6.80;89.90;;;;;;4962188;28;20113;-64
2024/02/04 08:27:44;;;;;;;6.10;3.15;;;6.80;89.90;;;;;;4965343;28;20031;-64
2024/02/04 08:30:11;;;;;;;4.15;3.75;;;6.80;89.80;;;;;;4974137;28;20090;-63
2024/02/04 08:32:37;;;;;;;3.97;3.45;;;6.80;89.70;;;;;;4961068;28;20031;-63
2024/02/04 08:35:03;;;;;;;4.68;3.65;;;6.80;89.70;;;;;;4960797;28;20042;-62
2024/02/04 08:37:29;;;;;;;3.97;3.67;;;6.80;89.80;;;;;;4969518;28;20051;-63
2024/02/04 08:39:55;;;;;;;3.90;3.50;;;6.80;89.90;;;;;;4966522;28;20031;-63
2024/02/04 08:42:20;;;;;;;4.30;3.58;;;6.80;89.90;;;;;;4969648;28;20039;-64
2024/02/04 08:44:46;;;;;;;4.68;3.33;;;6.80;89.80;;;;;;4969051;28;20519;-64
2024/02/04 08:47:14;;;;;;;6.10;3.05;;;6.80;89.90;;;;;;4967486;28;20593;-64
2024/02/04 08:49:40;;;;;;;2.92;2.55;;;6.80;90.20;;;;;;4961619;28;20562;-64
2024/02/04 08:52:05;;;;;;;2.83;2.60;;;6.80;89.80;;;;;;4966039;28;20073;-64
2024/02/04 08:54:31;;;;;;;2.88;2.58;;;6.80;89.90;;;;;;4985983;28;20038;-62
2024/02/04 08:56:56;;;;;;;2.28;2.08;;;6.90;90.00;;;;;;4983541;28;20046;-64
2024/02/04 08:59:24;;;;;;;1.98;1.75;;;6.80;90.00;;;;;;4982540;28;20569;-62
2024/02/04 09:01:50;;;;;;;3.00;2.10;;;6.90;90.00;;;;;;4987563;28;20406;-64
2024/02/04 09:04:15;;;;;;;2.00;1.80;;;6.90;90.00;;;;;;4985231;28;20038;-64
2024/02/04 09:06:41;;;;;;;1.77;1.67;;;6.90;90.20;;;;;;4979434;28;22590;-61
2024/02/04 09:09:08;;;;;;;2.38;1.63;;;6.90;90.20;;;;;;4990568;28;20065;-63
2024/02/04 09:11:33;;;;;;;3.40;1.80;;;7.00;90.20;;;;;;4990853;28;20035;-63
2024/02/04 09:13:59;;;;;;;1.98;1.77;;;7.10;90.20;;;;;;4983605;28;20038;-64
2024/02/04 09:16:25;;;;;;;2.90;1.75;;;7.10;90.10;;;;;;4983789;28;20046;-62
2024/02/04 09:18:50;;;;;;;2.08;1.80;;;7.20;90.00;;;;;;4985084;28;20344;-64
2024/02/04 09:21:16;;;;;;;1.88;1.63;;;7.20;89.80;;;;;;4981713;28;20035;-64
2024/02/04 09:23:42;;;;;;;2.22;2.00;;;7.20;89.70;;;;;;4982638;28;20042;-61
2024/02/04 09:26:07;;;;;;;3.80;1.90;;;7.20;89.70;;;;;;4985612;28;20511;-63
2024/02/04 09:28:33;;;;;;;1.98;1.80;;;7.30;89.70;;;;;;4977911;28;20126;-63
2024/02/04 09:30:58;;;;;;;1.60;1.50;;;7.30;89.90;;;;;;4990522;28;20398;-64
2024/02/04 09:33:24;;;;;;;2.65;1.40;;;7.30;89.80;;;;;;4982859;28;20030;-64
2024/02/04 09:35:50;;;;;;;2.33;1.35;;;7.40;89.80;;;;;;4986147;28;20114;-63
2024/02/04 09:38:16;;;;;;;1.98;1.30;;;7.40;89.70;;;;;;4986429;28;20038;-62
2024/02/04 09:40:42;;;;;;;2.35;1.20;;;7.50;89.70;;;;;;4982706;28;20078;-62
2024/02/04 09:43:08;;;;;;;2.55;1.42;;;7.50;89.50;;;;;;4985876;28;20128;-63
2024/02/04 09:45:34;;;;;;;2.10;1.40;;;7.50;89.50;;;;;;4988049;28;20137;-65
2024/02/04 09:48:02;;;;;;;1.90;1.45;;;7.50;89.60;;;;;;4991145;28;20410;-64
2024/02/04 09:50:28;;;;;;;1.83;1.60;;;7.60;89.60;;;;;;4989085;28;20129;-64
2024/02/04 09:52:58;;;;;;;1.60;1.35;;;7.70;89.50;;;;;;4983622;28;20180;-63
2024/02/04 09:55:25;;;;;;;1.60;1.02;;;7.70;89.30;;;;;;4979374;28;20043;-63
2024/02/04 09:57:50;;;;;;;1.63;1.33;;;7.80;89.30;;;;;;4981255;28;20415;-61
2024/02/04 10:00:20;;;;;;;1.65;1.55;;;7.80;89.00;;;;;;4979973;28;20068;-63
2024/02/04 10:02:49;;;;;;;1.70;1.50;;;7.80;88.90;;;;;;4991766;28;20034;-63
2024/02/04 10:05:15;;;;;;;2.10;1.08;;;7.90;88.90;;;;;;4985241;28;20034;-62
2024/02/04 10:07:42;;;;;;;2.80;1.35;;;7.90;88.70;;;;;;4986423;28;20113;-64
2024/02/04 10:10:08;;;;;;;1.50;1.30;;;7.90;88.50;;;;;;4984325;28;20122;-62
2024/02/04 10:12:35;;;;;;;1.63;1.38;;;7.90;88.50;;;;;;4984459;28;20506;-64
2024/02/04 10:15:02;;;;;;;1.70;1.30;;;7.90;88.40;;;;;;4987036;28;20046;-63
2024/02/04 10:17:27;;;;;;;1.30;1.20;;;8.00;88.40;;;;;;4983986;28;20127;-62
2024/02/04 10:19:53;;;;;;;2.47;1.40;;;8.00;88.30;;;;;;4983486;28;21138;-64
2024/02/04 10:22:18;;;;;;;3.55;1.52;;;8.00;88.30;;;;;;4985224;28;20034;-61
2024/02/04 10:24:46;;;;;;;2.92;1.40;;;8.00;88.20;;;;;;4981647;28;20030;-65
2024/02/04 10:27:12;;;;;;;1.80;1.50;;;8.10;88.40;;;;;;4986726;28;20061;-64
2024/02/04 10:29:38;;;;;;;2.28;1.40;;;8.10;88.50;;;;;;4980612;28;20585;-64
2024/02/04 10:32:04;;;;;;;4.20;1.40;;;8.20;88.50;;;;;;4983859;28;20034;-63
2024/02/04 10:34:29;;;;;;;1.88;1.35;;;8.20;88.20;;;;;;4994884;28;20045;-64
2024/02/04 10:36:56;;;;;;;2.25;1.17;;;8.30;88.10;;;;;;4986607;28;20049;-64
2024/02/04 10:39:22;;;;;;;2.15;1.40;;;8.30;87.80;;;;;;4984209;28;20033;-64
2024/02/04 10:41:52;;;;;;;2.63;1.13;;;8.40;87.80;;;;;;4986735;28;20034;-63
2024/02/04 10:44:21;;;;;;;3.25;1.65;;;8.40;87.70;;;;;;4987399;28;20518;-64
2024/02/04 10:46:50;;;;;;;4.72;2.67;;;8.50;87.80;;;;;;4993627;28;20049;-63
2024/02/04 10:49:17;;;;;;;2.05;1.70;;;8.50;87.70;;;;;;4989764;28;20030;-64
2024/02/04 10:51:45;;;;;;;3.97;1.20;;;8.60;87.90;;;;;;4978498;28;20058;-64
2024/02/04 10:54:15;;;;;;;1.30;1.20;;;8.70;87.80;;;;;;4977006;28;20058;-62
2024/02/04 10:56:46;;;;;;;1.98;1.45;;;8.70;87.60;;;;;;4983081;28;20042;-64
2024/02/04 10:59:17;;;;;;;3.67;1.60;;;8.80;87.60;;;;;;4982071;28;21692;-64
2024/02/04 11:01:43;;;;;;;2.75;1.20;;;8.90;87.40;;;;;;4976254;28;20070;-63
2024/02/04 11:04:11;;;;;;;1.42;0.85;;;9.00;86.80;;;;;;4984893;28;20081;-64
2024/02/04 11:06:40;;;;;;;2.05;0.80;;;9.00;86.60;;;;;;4981197;28;20054;-64
2024/02/04 11:09:08;;;;;;;1.88;0.90;;;9.10;86.20;;;;;;4986636;28;20065;-64
2024/02/04 11:11:34;;;;;;;1.45;0.77;;;9.10;85.90;;;;;;4985987;28;20390;-63
2024/02/04 11:14:04;;;;;;;1.48;0.95;;;9.20;85.70;;;;;;4985842;28;20141;-64
2024/02/04 11:16:44;;;;;;;3.75;0.90;;;9.20;85.50;;;;;;4979633;28;20081;-62
2024/02/04 11:19:23;;;;;;;0.75;0.75;;;9.20;85.30;;;;;;4983673;28;20093;-63
2024/02/04 11:22:25;;;;;;;3.00;1.00;;;9.20;85.30;;;;;;4986223;28;20034;-64
2024/02/04 11:25:21;;;;;;;2.03;1.20;;;9.30;84.90;;;;;;4983250;28;20039;-64
2024/02/04 11:27:47;;;;;;;2.60;1.15;;;9.30;85.00;;;;;;4982073;28;20047;-63
2024/02/04 11:30:14;;;;;;;2.47;1.00;;;9.30;85.20;;;;;;4984286;28;20126;-63
2024/02/04 11:32:41;;;;;;;2.25;1.00;;;9.30;85.00;;;;;;4985321;28;20042;-63
2024/02/04 11:35:07;;;;;;;3.35;0.93;;;9.40;85.10;;;;;;4981579;28;20092;-63
2024/02/04 11:37:33;;;;;;;0.80;0.80;;;9.30;85.00;;;;;;4978832;28;20038;-64
2024/02/04 11:39:59;;;;;;;1.60;0.77;;;9.40;85.20;;;;;;4985063;28;20035;-63
2024/02/04 11:42:25;;;;;;;1.38;0.90;;;9.40;85.00;;;;;;4988357;28;20034;-63
2024/02/04 11:45:06;;;;;;;3.78;1.00;;;9.40;84.90;;;;;;4982670;28;20062;-63
2024/02/04 11:47:34;;;;;;;3.28;0.70;;;9.50;85.00;;;;;;4983946;28;20045;-63
2024/02/04 11:50:00;;;;;;;1.58;0.70;;;9.50;84.80;;;;;;4986303;28;20026;-64
2024/02/04 11:52:28;;;;;;;0.98;0.65;;;9.60;84.80;;;;;;4989695;28;20579;-64
2024/02/04 11:54:54;;;;;;;1.25;0.75;;;9.70;84.50;;;;;;4981769;28;20035;-63
2024/02/04 11:57:21;;;;;;;1.67;0.77;;;9.70;84.50;;;;;;4985059;28;20030;-64
2024/02/04 11:59:47;;;;;;;1.90;0.65;;;9.70;84.50;;;;;;4986245;28;20073;-63
2024/02/04 12:02:16;;;;;;;3.70;0.70;;;9.90;84.50;;;;;;4983312;28;20525;-62
2024/02/04 12:04:44;;;;;;;1.13;0.55;;;9.90;84.50;;;;;;4981511;28;20553;-64
2024/02/04 12:07:10;;;;;;;0.90;0.50;;;10.00;84.50;;;;;;4983734;28;20027;-63
2024/02/04 12:09:37;;;;;;;1.77;0.60;;;10.00;84.40;;;;;;4988929;28;20042;-64
2024/02/04 12:12:04;;;;;;;2.85;0.90;;;10.20;84.10;;;;;;4986449;28;20031;-63
2024/02/04 12:14:31;;;;;;;1.33;0.73;;;10.30;83.70;;;;;;4981769;28;20137;-62
2024/02/04 12:16:57;;;;;;;2.35;0.70;;;10.40;83.60;;;;;;4983072;28;20050;-63
2024/02/04 12:19:23;;;;;;;0.82;0.47;;;10.40;83.40;;;;;;4984371;28;20045;-64
2024/02/04 12:21:49;;;;;;;1.00;0.60;;;10.50;83.10;;;;;;4990018;28;20034;-63
2024/02/04 12:24:15;;;;;;;0.95;0.50;;;10.60;82.90;;;;;;4978855;28;20039;-64
2024/02/04 12:26:41;;;;;;;1.90;0.65;;;10.70;82.50;;;;;;4998556;28;20487;-63
2024/02/04 12:29:07;;;;;;;1.55;0.50;;;10.80;83.50;;;;;;4985673;28;20034;-63
2024/02/04 12:31:33;;;;;;;2.38;0.50;;;10.90;82.50;;;;;;4984968;28;20042;-62
2024/02/04 12:34:01;;;;;;;2.47;0.60;;;10.90;82.80;;;;;;4980893;28;20370;-64
2024/02/04 12:36:28;;;;;;;2.72;0.70;;;11.00;81.50;;;;;;4989055;28;20042;-65
2024/02/04 12:38:55;;;;;;;1.70;0.70;;;11.10;81.50;;;;;;4984285;28;20045;-63
2024/02/04 12:41:24;;;;;;;1.55;0.50;;;11.20;81.30;;;;;;4985921;28;20041;-64
2024/02/04 12:43:51;;;;;;;4.50;0.70;;;11.20;81.20;;;;;;4981148;28;20042;-62
2024/02/04 12:46:21;;;;;;;4.25;0.70;;;11.30;81.00;;;;;;4984549;28;20030;-63
2024/02/04 12:48:54;;;;;;;1.42;0.50;;;11.30;80.30;;;;;;4981334;28;20125;-64
2024/02/04 12:51:31;;;;;;;1.65;0.50;;;11.40;79.40;;;;;;4981726;28;20062;-63